sensor_id;sensor_type;location;lat;lon;timestamp;pressure;altitude;pressure_sealevel;temperature;humidity
26711;BME280;18311;52.754;18.118;2022-08-05T00:00:04;100460.48;;;22.67;100.00
26711;BME280;18311;52.754;18.118;2022-08-05T00:02:37;100466.93;;;22.66;100.00
26711;BME280;18311;52.754;18.118;2022-08-05T00:05:10;100475.53;;;22.61;100.00
26711;BME280;18311;52.754;18.118;2022-08-05T00:07:42;100472.70;;;22.53;100.00
26711;BME280;18311;52.754;18.118;2022-08-05T00:10:15;100467.81;;;22.56;100.00
26711;BME280;18311;52.754;18.118;2022-08-05T00:12:46;100467.28;;;22.33;100.00
26711;BME280;18311;52.754;18.118;2022-08-05T00:15:18;100472.42;;;22.36;100.00
26711;BME280;18311;52.754;18.118;2022-08-05T00:17:51;100469.68;;;22.17;100.00
26711;BME280;18311;52.754;18.118;2022-08-05T00:20:23;100469.68;;;22.17;100.00
26711;BME280;18311;52.754;18.118;2022-08-05T00:22:55;100468.70;;;22.28;100.00
26711;BME280;18311;52.754;18.118;2022-08-05T00:25:28;100466.08;;;22.26;100.00
26711;BME280;18311;52.754;18.118;2022-08-05T00:28:01;100474.14;;;22.18;100.00
26711;BME280;18311;52.754;18.118;2022-08-05T00:30:32;100471.13;;;22.11;100.00
26711;BME280;18311;52.754;18.118;2022-08-05T00:33:04;100460.37;;;22.10;100.00
26711;BME280;18311;52.754;18.118;2022-08-05T00:35:37;100472.81;;;21.93;100.00
26711;BME280;18311;52.754;18.118;2022-08-05T00:38:09;100464.39;;;22.05;100.00
26711;BME280;18311;52.754;18.118;2022-08-05T00:40:47;100470.70;;;22.16;100.00
26711;BME280;18311;52.754;18.118;2022-08-05T00:43:22;100470.39;;;21.99;100.00
26711;BME280;18311;52.754;18.118;2022-08-05T00:45:55;100458.93;;;21.96;100.00
26711;BME280;18311;52.754;18.118;2022-08-05T00:48:27;100457.23;;;21.95;100.00
26711;BME280;18311;52.754;18.118;2022-08-05T00:50:59;100458.93;;;21.96;100.00
26711;BME280;18311;52.754;18.118;2022-08-05T00:53:32;100456.48;;;21.93;100.00
26711;BME280;18311;52.754;18.118;2022-08-05T00:56:05;100457.92;;;21.87;100.00
26711;BME280;18311;52.754;18.118;2022-08-05T00:58:36;100461.06;;;21.82;100.00
26711;BME280;18311;52.754;18.118;2022-08-05T01:01:11;100454.02;;;21.70;100.00
26711;BME280;18311;52.754;18.118;2022-08-05T01:03:46;100458.77;;;21.87;100.00
26711;BME280;18311;52.754;18.118;2022-08-05T01:06:18;100451.61;;;21.77;100.00
26711;BME280;18311;52.754;18.118;2022-08-05T01:08:50;100450.34;;;21.81;100.00
26711;BME280;18311;52.754;18.118;2022-08-05T01:11:29;100445.89;;;21.80;100.00
26711;BME280;18311;52.754;18.118;2022-08-05T01:16:59;100441.16;;;21.72;100.00
26711;BME280;18311;52.754;18.118;2022-08-05T01:33:41;100425.39;;;21.66;100.00
26711;BME280;18311;52.754;18.118;2022-08-05T01:36:15;100421.81;;;21.75;100.00
26711;BME280;18311;52.754;18.118;2022-08-05T01:38:49;100417.09;;;21.67;100.00
26711;BME280;18311;52.754;18.118;2022-08-05T01:41:22;100422.38;;;21.79;100.00
26711;BME280;18311;52.754;18.118;2022-08-05T01:43:54;100415.79;;;21.72;100.00
26711;BME280;18311;52.754;18.118;2022-08-05T01:46:27;100417.30;;;21.45;100.00
26711;BME280;18311;52.754;18.118;2022-08-05T01:49:03;100415.93;;;21.70;100.00
26711;BME280;18311;52.754;18.118;2022-08-05T01:51:36;100413.37;;;21.78;100.00
26711;BME280;18311;52.754;18.118;2022-08-05T01:54:12;100409.80;;;21.78;100.00
26711;BME280;18311;52.754;18.118;2022-08-05T01:56:47;100405.16;;;21.49;100.00
26711;BME280;18311;52.754;18.118;2022-08-05T01:59:22;100410.61;;;21.49;100.00
26711;BME280;18311;52.754;18.118;2022-08-05T02:01:55;100405.30;;;21.47;100.00
26711;BME280;18311;52.754;18.118;2022-08-05T02:04:28;100409.03;;;21.56;100.00
26711;BME280;18311;52.754;18.118;2022-08-05T02:07:01;100401.31;;;21.61;100.00
26711;BME280;18311;52.754;18.118;2022-08-05T02:09:34;100398.33;;;21.55;100.00
26711;BME280;18311;52.754;18.118;2022-08-05T02:12:07;100405.71;;;21.43;100.00
26711;BME280;18311;52.754;18.118;2022-08-05T02:14:51;100405.84;;;21.41;100.00
26711;BME280;18311;52.754;18.118;2022-08-05T02:17:44;100410.00;;;21.45;100.00
26711;BME280;18311;52.754;18.118;2022-08-05T02:20:21;100404.69;;;21.44;100.00
26711;BME280;18311;52.754;18.118;2022-08-05T02:23:00;100393.57;;;21.47;100.00
26711;BME280;18311;52.754;18.118;2022-08-05T02:25:34;100395.52;;;21.25;100.00
26711;BME280;18311;52.754;18.118;2022-08-05T02:28:08;100397.24;;;21.36;100.00
26711;BME280;18311;52.754;18.118;2022-08-05T02:30:44;100400.27;;;21.43;100.00
26711;BME280;18311;52.754;18.118;2022-08-05T02:33:18;100395.23;;;21.38;100.00
26711;BME280;18311;52.754;18.118;2022-08-05T02:35:55;100391.23;;;21.33;100.00
26711;BME280;18311;52.754;18.118;2022-08-05T02:38:29;100397.78;;;21.20;100.00
26711;BME280;18311;52.754;18.118;2022-08-05T02:41:04;100388.20;;;21.16;100.00
26711;BME280;18311;52.754;18.118;2022-08-05T02:43:40;100380.31;;;21.13;100.00
26711;BME280;18311;52.754;18.118;2022-08-05T02:46:15;100382.31;;;21.11;100.00
26711;BME280;18311;52.754;18.118;2022-08-05T02:48:49;100385.75;;;21.13;100.00
26711;BME280;18311;52.754;18.118;2022-08-05T02:51:22;100382.31;;;21.11;100.00
26711;BME280;18311;52.754;18.118;2022-08-05T02:53:56;100385.30;;;21.08;100.00
26711;BME280;18311;52.754;18.118;2022-08-05T02:56:29;100391.59;;;21.08;100.00
26711;BME280;18311;52.754;18.118;2022-08-05T02:59:00;100388.28;;;20.95;100.00
26711;BME280;18311;52.754;18.118;2022-08-05T03:01:36;100385.70;;;20.93;100.00
26711;BME280;18311;52.754;18.118;2022-08-05T03:04:14;100394.19;;;20.79;100.00
26711;BME280;18311;52.754;18.118;2022-08-05T03:06:45;100385.83;;;20.92;100.00
26711;BME280;18311;52.754;18.118;2022-08-05T03:09:18;100379.82;;;20.98;100.00
26711;BME280;18311;52.754;18.118;2022-08-05T03:11:51;100380.92;;;20.86;100.00
26711;BME280;18311;52.754;18.118;2022-08-05T03:14:24;100383.64;;;20.86;100.00
26711;BME280;18311;52.754;18.118;2022-08-05T03:16:56;100378.52;;;20.92;100.00
26711;BME280;18311;52.754;18.118;2022-08-05T03:19:27;100382.15;;;20.72;100.00
26711;BME280;18311;52.754;18.118;2022-08-05T03:22:00;100379.36;;;20.83;100.00
26711;BME280;18311;52.754;18.118;2022-08-05T03:24:32;100381.36;;;20.81;100.00
26711;BME280;18311;52.754;18.118;2022-08-05T03:27:06;100377.17;;;20.77;100.00
26711;BME280;18311;52.754;18.118;2022-08-05T03:29:36;100382.61;;;20.77;100.00
26711;BME280;18311;52.754;18.118;2022-08-05T03:32:11;100383.89;;;20.73;100.00
26711;BME280;18311;52.754;18.118;2022-08-05T03:34:44;100386.47;;;20.74;100.00
26711;BME280;18311;52.754;18.118;2022-08-05T03:37:18;100383.70;;;20.65;100.00
26711;BME280;18311;52.754;18.118;2022-08-05T03:39:53;100382.36;;;20.59;100.00
26711;BME280;18311;52.754;18.118;2022-08-05T03:42:26;100378.04;;;20.56;100.00
26711;BME280;18311;52.754;18.118;2022-08-05T03:44:59;100374.28;;;20.48;100.00
26711;BME280;18311;52.754;18.118;2022-08-05T03:47:32;100381.18;;;20.52;100.00
26711;BME280;18311;52.754;18.118;2022-08-05T03:50:05;100378.86;;;20.47;100.00
26711;BME280;18311;52.754;18.118;2022-08-05T03:52:55;100378.86;;;20.47;100.00
26711;BME280;18311;52.754;18.118;2022-08-05T03:55:29;100372.25;;;20.40;100.00
26711;BME280;18311;52.754;18.118;2022-08-05T03:58:02;100376.27;;;20.46;100.00
26711;BME280;18311;52.754;18.118;2022-08-05T04:00:34;100373.78;;;20.33;100.00
26711;BME280;18311;52.754;18.118;2022-08-05T04:03:09;100374.70;;;20.43;100.00
26711;BME280;18311;52.754;18.118;2022-08-05T04:05:43;100366.67;;;20.63;100.00
26711;BME280;18311;52.754;18.118;2022-08-05T04:08:16;100362.55;;;20.68;100.00
26711;BME280;18311;52.754;18.118;2022-08-05T04:10:49;100371.41;;;20.70;100.00
26711;BME280;18311;52.754;18.118;2022-08-05T04:13:21;100374.13;;;20.70;100.00
26711;BME280;18311;52.754;18.118;2022-08-05T04:15:53;100368.11;;;20.67;100.00
26711;BME280;18311;52.754;18.118;2022-08-05T04:18:25;100371.34;;;20.82;100.00
26711;BME280;18311;52.754;18.118;2022-08-05T04:20:57;100363.02;;;20.52;100.00
26711;BME280;18311;52.754;18.118;2022-08-05T04:23:29;100373.73;;;20.75;100.00
26711;BME280;18311;52.754;18.118;2022-08-05T04:26:02;100367.66;;;20.62;100.00
26711;BME280;18311;52.754;18.118;2022-08-05T04:28:33;100364.87;;;20.73;100.00
26711;BME280;18311;52.754;18.118;2022-08-05T04:31:08;100372.50;;;20.89;100.00
26711;BME280;18311;52.754;18.118;2022-08-05T04:33:39;100362.80;;;20.96;100.00
26711;BME280;18311;52.754;18.118;2022-08-05T04:36:11;100372.77;;;20.86;100.00
26711;BME280;18311;52.754;18.118;2022-08-05T04:38:45;100359.81;;;20.99;100.00
26711;BME280;18311;52.754;18.118;2022-08-05T04:41:18;100360.97;;;21.06;100.00
26711;BME280;18311;52.754;18.118;2022-08-05T04:43:51;100363.28;;;21.11;100.00
26711;BME280;18311;52.754;18.118;2022-08-05T04:46:23;100362.84;;;21.06;100.00
26711;BME280;18311;52.754;18.118;2022-08-05T04:48:55;100358.66;;;21.02;100.00
26711;BME280;18311;52.754;18.118;2022-08-05T04:51:27;100350.84;;;21.28;100.00
26711;BME280;18311;52.754;18.118;2022-08-05T04:53:59;100354.14;;;21.31;100.00
26711;BME280;18311;52.754;18.118;2022-08-05T04:56:30;100353.89;;;21.44;100.00
26711;BME280;18311;52.754;18.118;2022-08-05T04:59:03;100348.70;;;21.31;100.00
26711;BME280;18311;52.754;18.118;2022-08-05T05:01:36;100344.33;;;21.50;100.00
26711;BME280;18311;52.754;18.118;2022-08-05T05:04:09;100355.78;;;21.54;100.00
26711;BME280;18311;52.754;18.118;2022-08-05T05:06:40;100352.44;;;21.40;100.00
26711;BME280;18311;52.754;18.118;2022-08-05T05:09:12;100351.07;;;21.65;100.00
26711;BME280;18311;52.754;18.118;2022-08-05T05:11:45;100357.36;;;21.66;100.00
26711;BME280;18311;52.754;18.118;2022-08-05T05:14:18;100348.35;;;21.65;100.00
26711;BME280;18311;52.754;18.118;2022-08-05T05:16:52;100351.06;;;21.95;100.00
26711;BME280;18311;52.754;18.118;2022-08-05T05:19:23;100346.89;;;22.00;100.00
26711;BME280;18311;52.754;18.118;2022-08-05T05:21:56;100355.16;;;22.18;100.00
26711;BME280;18311;52.754;18.118;2022-08-05T05:24:29;100355.31;;;22.17;100.00
26711;BME280;18311;52.754;18.118;2022-08-05T05:27:01;100347.70;;;22.20;100.00
26711;BME280;18311;52.754;18.118;2022-08-05T05:29:32;100346.25;;;22.46;100.00
26711;BME280;18311;52.754;18.118;2022-08-05T05:32:06;100352.55;;;22.46;100.00
26711;BME280;18311;52.754;18.118;2022-08-05T05:34:39;100340.45;;;22.58;100.00
26711;BME280;18311;52.754;18.118;2022-08-05T05:37:11;100342.59;;;22.65;100.00
26711;BME280;18311;52.754;18.118;2022-08-05T05:39:44;100344.56;;;22.72;100.00
26711;BME280;18311;52.754;18.118;2022-08-05T05:42:15;100345.23;;;22.84;100.00
26711;BME280;18311;52.754;18.118;2022-08-05T05:44:50;100349.39;;;22.78;100.00
26711;BME280;18311;52.754;18.118;2022-08-05T05:47:22;100346.48;;;22.90;100.00
26711;BME280;18311;52.754;18.118;2022-08-05T05:49:54;100342.50;;;22.84;100.00
26711;BME280;18311;52.754;18.118;2022-08-05T05:52:29;100341.95;;;23.08;100.00
26711;BME280;18311;52.754;18.118;2022-08-05T05:55:03;100339.67;;;23.04;100.00
26711;BME280;18311;52.754;18.118;2022-08-05T05:57:38;100342.15;;;23.25;100.00
26711;BME280;18311;52.754;18.118;2022-08-05T06:00:17;100336.39;;;23.28;100.00
26711;BME280;18311;52.754;18.118;2022-08-05T06:02:48;100346.13;;;23.48;100.00
26711;BME280;18311;52.754;18.118;2022-08-05T06:05:19;100340.61;;;23.40;100.00
26711;BME280;18311;52.754;18.118;2022-08-05T06:07:50;100343.81;;;23.71;100.00
26711;BME280;18311;52.754;18.118;2022-08-05T06:10:24;100346.93;;;23.77;100.00
26711;BME280;18311;52.754;18.118;2022-08-05T06:12:57;100338.59;;;23.96;100.00
26711;BME280;18311;52.754;18.118;2022-08-05T06:15:28;100348.59;;;23.87;100.00
26711;BME280;18311;52.754;18.118;2022-08-05T06:18:01;100340.27;;;24.15;100.00
26711;BME280;18311;52.754;18.118;2022-08-05T06:20:32;100345.77;;;24.23;100.00
26711;BME280;18311;52.754;18.118;2022-08-05T06:23:09;100339.61;;;24.21;100.00
26711;BME280;18311;52.754;18.118;2022-08-05T06:25:43;100343.47;;;24.37;100.00
26711;BME280;18311;52.754;18.118;2022-08-05T06:28:15;100347.11;;;24.45;100.00
26711;BME280;18311;52.754;18.118;2022-08-05T06:30:48;100341.59;;;24.37;100.00
26711;BME280;18311;52.754;18.118;2022-08-05T06:33:20;100334.06;;;24.57;100.00
26711;BME280;18311;52.754;18.118;2022-08-05T06:35:52;100334.45;;;24.71;100.00
26711;BME280;18311;52.754;18.118;2022-08-05T06:38:26;100327.67;;;24.83;100.00
26711;BME280;18311;52.754;18.118;2022-08-05T06:40:58;100323.84;;;25.10;100.00
26711;BME280;18311;52.754;18.118;2022-08-05T06:43:31;100323.64;;;25.03;100.00
26711;BME280;18311;52.754;18.118;2022-08-05T06:46:04;100314.14;;;25.24;100.00
26711;BME280;18311;52.754;18.118;2022-08-05T06:48:35;100311.27;;;25.25;100.00
26711;BME280;18311;52.754;18.118;2022-08-05T06:51:09;100306.52;;;25.60;100.00
26711;BME280;18311;52.754;18.118;2022-08-05T06:53:41;100303.61;;;25.87;100.00
26711;BME280;18311;52.754;18.118;2022-08-05T06:56:14;100315.06;;;25.74;100.00
26711;BME280;18311;52.754;18.118;2022-08-05T06:58:47;100301.57;;;25.72;100.00
26711;BME280;18311;52.754;18.118;2022-08-05T07:01:18;100306.89;;;25.98;100.00
26711;BME280;18311;52.754;18.118;2022-08-05T07:03:51;100307.36;;;26.18;100.00
26711;BME280;18311;52.754;18.118;2022-08-05T07:06:23;100306.38;;;25.95;100.00
26711;BME280;18311;52.754;18.118;2022-08-05T07:08:56;100307.02;;;26.13;100.00
26711;BME280;18311;52.754;18.118;2022-08-05T07:11:29;100317.44;;;26.26;100.00
26711;BME280;18311;52.754;18.118;2022-08-05T07:14:02;100316.23;;;26.37;100.00
26711;BME280;18311;52.754;18.118;2022-08-05T07:16:53;100306.22;;;26.61;100.00
26711;BME280;18311;52.754;18.118;2022-08-05T07:19:28;100309.67;;;26.54;100.00
26711;BME280;18311;52.754;18.118;2022-08-05T07:22:03;100310.45;;;26.80;100.00
26711;BME280;18311;52.754;18.118;2022-08-05T07:24:35;100311.87;;;26.59;100.00
26711;BME280;18311;52.754;18.118;2022-08-05T07:27:08;100315.09;;;26.79;100.00
26711;BME280;18311;52.754;18.118;2022-08-05T07:29:39;100311.24;;;26.97;100.00
26711;BME280;18311;52.754;18.118;2022-08-05T07:32:12;100313.92;;;27.05;100.00
26711;BME280;18311;52.754;18.118;2022-08-05T07:34:43;100310.53;;;27.26;100.00
26711;BME280;18311;52.754;18.118;2022-08-05T07:37:15;100303.44;;;27.08;100.00
26711;BME280;18311;52.754;18.118;2022-08-05T07:39:47;100309.52;;;27.27;100.00
26711;BME280;18311;52.754;18.118;2022-08-05T07:42:25;100305.61;;;27.21;100.00
26711;BME280;18311;52.754;18.118;2022-08-05T07:44:58;100308.58;;;27.43;100.00
26711;BME280;18311;52.754;18.118;2022-08-05T07:47:29;100301.19;;;27.43;100.00
26711;BME280;18311;52.754;18.118;2022-08-05T07:50:02;100300.27;;;27.74;100.00
26711;BME280;18311;52.754;18.118;2022-08-05T07:52:39;100299.06;;;27.77;100.00
26711;BME280;18311;52.754;18.118;2022-08-05T07:55:12;100302.84;;;27.76;100.00
26711;BME280;18311;52.754;18.118;2022-08-05T07:57:46;100294.83;;;27.89;97.96
26711;BME280;18311;52.754;18.118;2022-08-05T08:00:18;100302.94;;;28.05;100.00
26711;BME280;18311;52.754;18.118;2022-08-05T08:02:52;100297.37;;;28.14;93.23
26711;BME280;18311;52.754;18.118;2022-08-05T08:05:25;100300.11;;;28.14;92.84
26711;BME280;18311;52.754;18.118;2022-08-05T08:07:56;100297.33;;;27.99;88.54
26711;BME280;18311;52.754;18.118;2022-08-05T08:10:29;100298.27;;;27.91;90.79
26711;BME280;18311;52.754;18.118;2022-08-05T08:13:01;100300.26;;;27.97;83.52
26711;BME280;18311;52.754;18.118;2022-08-05T08:15:32;100295.53;;;28.06;92.03
26711;BME280;18311;52.754;18.118;2022-08-05T08:18:06;100296.23;;;28.53;93.87
26711;BME280;18311;52.754;18.118;2022-08-05T08:20:39;100304.02;;;28.49;90.09
26711;BME280;18311;52.754;18.118;2022-08-05T08:23:13;100297.66;;;28.34;87.55
26711;BME280;18311;52.754;18.118;2022-08-05T08:25:46;100301.49;;;28.62;82.66
26711;BME280;18311;52.754;18.118;2022-08-05T08:28:19;100291.43;;;28.70;93.06
26711;BME280;18311;52.754;18.118;2022-08-05T08:30:52;100298.94;;;28.61;84.74
26711;BME280;18311;52.754;18.118;2022-08-05T08:33:23;100299.92;;;28.90;84.41
26711;BME280;18311;52.754;18.118;2022-08-05T08:35:56;100300.72;;;28.69;79.68
26711;BME280;18311;52.754;18.118;2022-08-05T08:38:29;100305.98;;;29.00;79.78
26711;BME280;18311;52.754;18.118;2022-08-05T08:41:05;100292.83;;;28.80;86.76
26711;BME280;18311;52.754;18.118;2022-08-05T08:43:37;100296.80;;;28.93;82.80
26711;BME280;18311;52.754;18.118;2022-08-05T08:46:11;100297.72;;;29.00;81.21
26711;BME280;18311;52.754;18.118;2022-08-05T08:48:46;100296.09;;;29.06;74.33
26711;BME280;18311;52.754;18.118;2022-08-05T08:51:20;100299.69;;;29.21;83.09
26711;BME280;18311;52.754;18.118;2022-08-05T08:53:53;100290.41;;;29.44;80.07
26711;BME280;18311;52.754;18.118;2022-08-05T08:56:25;100283.36;;;29.19;77.96
26711;BME280;18311;52.754;18.118;2022-08-05T08:58:57;100283.63;;;29.25;84.85
26711;BME280;18311;52.754;18.118;2022-08-05T09:01:28;100284.89;;;29.44;79.83
26711;BME280;18311;52.754;18.118;2022-08-05T09:04:01;100293.11;;;29.59;77.29
26711;BME280;18311;52.754;18.118;2022-08-05T09:06:36;100272.19;;;29.43;82.84
26711;BME280;18311;52.754;18.118;2022-08-05T09:09:09;100281.02;;;29.60;78.78
26711;BME280;18311;52.754;18.118;2022-08-05T09:11:41;100283.89;;;29.94;76.94
26711;BME280;18311;52.754;18.118;2022-08-05T09:14:14;100271.31;;;29.85;76.16
26711;BME280;18311;52.754;18.118;2022-08-05T09:16:47;100270.02;;;30.09;70.77
26711;BME280;18311;52.754;18.118;2022-08-05T09:19:19;100268.89;;;29.75;74.39
26711;BME280;18311;52.754;18.118;2022-08-05T09:21:52;100274.66;;;30.09;74.18
26711;BME280;18311;52.754;18.118;2022-08-05T09:24:25;100275.73;;;30.08;66.22
26711;BME280;18311;52.754;18.118;2022-08-05T09:26:59;100280.41;;;30.07;69.57
26711;BME280;18311;52.754;18.118;2022-08-05T09:29:41;100269.64;;;30.19;66.45
26711;BME280;18311;52.754;18.118;2022-08-05T09:32:15;100277.41;;;30.09;66.18
26711;BME280;18311;52.754;18.118;2022-08-05T09:34:54;100277.39;;;30.02;67.62
26711;BME280;18311;52.754;18.118;2022-08-05T09:37:28;100267.77;;;30.26;70.75
26711;BME280;18311;52.754;18.118;2022-08-05T09:40:01;100267.53;;;30.21;72.48
26711;BME280;18311;52.754;18.118;2022-08-05T09:42:39;100275.73;;;30.36;74.75
26711;BME280;18311;52.754;18.118;2022-08-05T09:45:12;100257.06;;;30.38;71.23
26711;BME280;18311;52.754;18.118;2022-08-05T09:47:47;100259.58;;;30.75;65.45
26711;BME280;18311;52.754;18.118;2022-08-05T09:50:20;100259.34;;;30.69;67.14
26711;BME280;18311;52.754;18.118;2022-08-05T09:52:56;100266.27;;;30.94;65.16
26711;BME280;18311;52.754;18.118;2022-08-05T09:55:33;100267.77;;;31.03;65.30
26711;BME280;18311;52.754;18.118;2022-08-05T09:58:11;100264.05;;;30.76;60.64
26711;BME280;18311;52.754;18.118;2022-08-05T10:00:55;100266.30;;;31.00;59.01
26711;BME280;18311;52.754;18.118;2022-08-05T10:03:27;100264.42;;;31.14;61.53
26711;BME280;18311;52.754;18.118;2022-08-05T10:06:06;100263.18;;;31.43;53.60
26711;BME280;18311;52.754;18.118;2022-08-05T10:08:39;100255.36;;;31.54;57.45
26711;BME280;18311;52.754;18.118;2022-08-05T10:11:15;100256.66;;;31.58;55.81
26711;BME280;18311;52.754;18.118;2022-08-05T10:13:48;100251.54;;;32.02;60.58
26711;BME280;18311;52.754;18.118;2022-08-05T10:16:33;100251.35;;;31.63;57.11
26711;BME280;18311;52.754;18.118;2022-08-05T10:19:15;100247.73;;;31.76;63.01
26711;BME280;18311;52.754;18.118;2022-08-05T10:21:49;100241.75;;;31.46;59.30
26711;BME280;18311;52.754;18.118;2022-08-05T10:24:22;100249.86;;;31.80;55.86
26711;BME280;18311;52.754;18.118;2022-08-05T10:26:57;100238.73;;;32.27;56.16
26711;BME280;18311;52.754;18.118;2022-08-05T10:29:29;100237.52;;;31.76;51.43
26711;BME280;18311;52.754;18.118;2022-08-05T10:32:04;100246.02;;;32.02;55.89
26711;BME280;18311;52.754;18.118;2022-08-05T10:34:39;100236.23;;;32.06;51.92
26711;BME280;18311;52.754;18.118;2022-08-05T10:37:11;100228.17;;;31.77;55.17
26711;BME280;18311;52.754;18.118;2022-08-05T10:39:44;100229.00;;;32.05;55.32
26711;BME280;18311;52.754;18.118;2022-08-05T10:42:21;100226.70;;;31.68;51.42
26711;BME280;18311;52.754;18.118;2022-08-05T10:44:55;100225.61;;;31.62;51.35
26711;BME280;18311;52.754;18.118;2022-08-05T10:47:32;100211.59;;;31.77;50.35
26711;BME280;18311;52.754;18.118;2022-08-05T10:50:08;100217.27;;;32.29;53.34
26711;BME280;18311;52.754;18.118;2022-08-05T10:52:47;100213.41;;;32.30;50.28
26711;BME280;18311;52.754;18.118;2022-08-05T10:55:32;100218.12;;;32.23;51.54
26711;BME280;18311;52.754;18.118;2022-08-05T10:58:09;100211.90;;;32.34;51.55
26711;BME280;18311;52.754;18.118;2022-08-05T11:00:47;100216.25;;;32.76;52.72
26711;BME280;18311;52.754;18.118;2022-08-05T11:03:21;100207.83;;;32.50;51.20
26711;BME280;18311;52.754;18.118;2022-08-05T11:06:09;100200.20;;;32.32;50.78
26711;BME280;18311;52.754;18.118;2022-08-05T11:09:11;100205.12;;;32.24;48.62
26711;BME280;18311;52.754;18.118;2022-08-05T11:11:45;100202.13;;;32.32;49.63
26711;BME280;18311;52.754;18.118;2022-08-05T11:14:25;100197.02;;;32.35;49.48
26711;BME280;18311;52.754;18.118;2022-08-05T11:17:29;100197.11;;;32.09;47.08
26711;BME280;18311;52.754;18.118;2022-08-05T11:20:31;100200.48;;;32.04;47.74
26711;BME280;18311;52.754;18.118;2022-08-05T11:22:46;100192.81;;;32.20;45.15
26711;BME280;18311;52.754;18.118;2022-08-05T11:25:37;100201.36;;;31.98;49.25
26711;BME280;18311;52.754;18.118;2022-08-05T11:33:35;100187.77;;;31.76;47.83
26711;BME280;18311;52.754;18.118;2022-08-05T11:36:09;100193.64;;;32.27;49.98
26711;BME280;18311;52.754;18.118;2022-08-05T11:38:49;100190.30;;;31.98;49.50
26711;BME280;18311;52.754;18.118;2022-08-05T11:41:27;100196.22;;;32.15;48.63
26711;BME280;18311;52.754;18.118;2022-08-05T11:44:10;100190.08;;;32.06;49.23
26711;BME280;18311;52.754;18.118;2022-08-05T11:46:52;100185.75;;;32.30;49.06
26711;BME280;18311;52.754;18.118;2022-08-05T11:49:25;100192.25;;;32.56;49.13
26711;BME280;18311;52.754;18.118;2022-08-05T11:51:56;100193.99;;;32.50;45.25
26711;BME280;18311;52.754;18.118;2022-08-05T11:54:29;100189.55;;;32.88;46.44
26711;BME280;18311;52.754;18.118;2022-08-05T11:57:04;100189.14;;;33.23;45.95
26711;BME280;18311;52.754;18.118;2022-08-05T11:59:37;100180.27;;;33.39;45.73
26711;BME280;18311;52.754;18.118;2022-08-05T12:02:10;100180.67;;;33.11;46.24
26711;BME280;18311;52.754;18.118;2022-08-05T12:04:44;100183.91;;;33.08;43.60
26711;BME280;18311;52.754;18.118;2022-08-05T12:07:19;100188.12;;;33.17;44.26
26711;BME280;18311;52.754;18.118;2022-08-05T12:09:55;100185.55;;;32.84;45.72
26711;BME280;18311;52.754;18.118;2022-08-05T12:12:30;100175.09;;;32.86;44.98
26711;BME280;18311;52.754;18.118;2022-08-05T12:15:02;100183.44;;;33.11;44.34
26711;BME280;18311;52.754;18.118;2022-08-05T12:17:35;100180.70;;;33.04;45.48
26711;BME280;18311;52.754;18.118;2022-08-05T12:20:09;100178.72;;;33.18;43.43
26711;BME280;18311;52.754;18.118;2022-08-05T12:22:42;100181.97;;;33.15;45.59
26711;BME280;18311;52.754;18.118;2022-08-05T12:25:14;100176.77;;;33.51;43.47
26711;BME280;18311;52.754;18.118;2022-08-05T12:27:47;100167.55;;;33.32;43.71
26711;BME280;18311;52.754;18.118;2022-08-05T12:30:19;100177.27;;;33.41;42.61
26711;BME280;18311;52.754;18.118;2022-08-05T12:32:53;100166.30;;;33.78;43.21
26711;BME280;18311;52.754;18.118;2022-08-05T12:35:28;100163.56;;;33.96;44.11
26711;BME280;18311;52.754;18.118;2022-08-05T12:38:01;100144.99;;;34.15;43.53
26711;BME280;18311;52.754;18.118;2022-08-05T12:40:35;100159.66;;;34.22;41.54
26711;BME280;18311;52.754;18.118;2022-08-05T12:43:08;100156.50;;;34.19;42.39
26711;BME280;18311;52.754;18.118;2022-08-05T12:45:54;100153.39;;;33.65;42.22
26711;BME280;18311;52.754;18.118;2022-08-05T12:48:36;100153.55;;;34.14;42.61
26711;BME280;18311;52.754;18.118;2022-08-05T12:51:14;100136.91;;;34.14;41.47
26711;BME280;18311;52.754;18.118;2022-08-05T12:53:50;100142.89;;;34.48;42.62
26711;BME280;18311;52.754;18.118;2022-08-05T12:56:24;100137.86;;;34.56;40.34
26711;BME280;18311;52.754;18.118;2022-08-05T12:59:18;100131.08;;;34.22;42.09
26711;BME280;18311;52.754;18.118;2022-08-05T13:02:02;100146.01;;;34.02;41.08
26711;BME280;18311;52.754;18.118;2022-08-05T13:04:38;100131.81;;;34.11;40.38
26711;BME280;18311;52.754;18.118;2022-08-05T13:07:13;100130.89;;;34.35;43.34
26711;BME280;18311;52.754;18.118;2022-08-05T13:09:52;100129.82;;;34.36;40.87
26711;BME280;18311;52.754;18.118;2022-08-05T13:12:26;100122.30;;;34.25;40.76
26711;BME280;18311;52.754;18.118;2022-08-05T13:14:59;100116.93;;;34.42;40.46
26711;BME280;18311;52.754;18.118;2022-08-05T13:17:32;100117.16;;;34.40;39.91
26711;BME280;18311;52.754;18.118;2022-08-05T13:20:13;100121.34;;;34.31;40.38
26711;BME280;18311;52.754;18.118;2022-08-05T13:22:48;100117.33;;;34.09;40.86
26711;BME280;18311;52.754;18.118;2022-08-05T13:25:20;100119.39;;;34.50;40.11
26711;BME280;18311;52.754;18.118;2022-08-05T13:27:54;100111.94;;;34.14;40.11
26711;BME280;18311;52.754;18.118;2022-08-05T13:30:26;100105.02;;;34.23;40.70